Time;durP1;ratioP1;P1;durP2;ratioP2;P2;SDS_P1;SDS_P2;PMS_P1;PMS_P2;Temp;Humidity;BMP_temperature;BMP_pressure;BME280_temperature;BME280_humidity;BME280_pressure;Samples;Min_cycle;Max_cycle;Signal;HPM_P1;HPM_P2
2022/04/05 00:00:46;;;;;;;3.05;1.50;;;;;;;2.22;43.57;98200.13;5028581;28;20140;-41
2022/04/05 00:03:12;;;;;;;3.05;1.90;;;;;;;2.25;43.54;98195.75;5028328;28;20045;-41
2022/04/05 00:05:38;;;;;;;3.13;1.90;;;;;;;2.28;43.81;98190.56;5042252;28;20057;-41
2022/04/05 00:08:04;;;;;;;3.80;2.08;;;;;;;2.29;43.59;98191.41;5027850;28;20049;-40
2022/04/05 00:10:29;;;;;;;4.47;2.10;;;;;;;2.32;43.86;98183.63;5029859;28;20041;-41
2022/04/05 00:12:55;;;;;;;3.85;1.95;;;;;;;2.33;43.75;98183.59;5028376;28;20532;-41
2022/04/05 00:15:21;;;;;;;4.93;1.92;;;;;;;2.37;43.88;98182.63;5044860;28;20087;-41
2022/04/05 00:17:47;;;;;;;5.25;1.98;;;;;;;2.41;44.02;98185.94;5043041;28;20043;-42
2022/04/05 00:20:12;;;;;;;3.72;1.50;;;;;;;2.33;43.74;98157.13;5032280;28;20048;-41
2022/04/05 00:22:38;;;;;;;4.93;1.92;;;;;;;2.48;43.91;98185.78;5033034;28;20128;-40
2022/04/05 00:25:04;;;;;;;7.70;2.10;;;;;;;2.30;43.94;98167.47;5036972;28;20045;-39
2022/04/05 00:27:30;;;;;;;4.65;1.73;;;;;;;2.45;43.95;98182.44;5033062;28;20049;-42
2022/04/05 00:29:56;;;;;;;5.10;2.13;;;;;;;2.48;43.77;98182.38;5032572;28;20037;-41
2022/04/05 00:32:22;;;;;;;4.53;1.80;;;;;;;2.53;43.95;98178.78;5047894;28;20036;-40
2022/04/05 00:34:47;;;;;;;3.90;2.05;;;;;;;2.55;44.11;98182.16;5046395;28;20154;-41
2022/04/05 00:37:13;;;;;;;4.10;1.80;;;;;;;2.50;44.05;98160.09;5035921;28;20043;-42
2022/04/05 00:39:39;;;;;;;2.70;1.73;;;;;;;2.64;44.00;98173.38;5018992;28;20049;-41
2022/04/05 00:42:05;;;;;;;4.55;1.90;;;;;;;2.75;43.88;98163.66;5030535;28;20038;-42
2022/04/05 00:44:31;;;;;;;4.90;1.73;;;;;;;2.75;43.72;98143.16;5046516;28;20048;-41
2022/04/05 00:47:00;;;;;;;5.13;1.55;;;;;;;2.91;43.65;98167.50;5015106;28;20037;-41
2022/04/05 00:49:32;;;;;;;3.00;1.70;;;;;;;2.96;43.70;98169.94;5015015;28;20045;-40
2022/04/05 00:51:58;;;;;;;5.30;2.10;;;;;;;3.02;43.74;98168.91;5030110;28;20037;-40
2022/04/05 00:54:25;;;;;;;7.07;2.20;;;;;;;3.02;43.47;98163.78;5036892;28;20076;-41
2022/04/05 00:56:53;;;;;;;5.45;2.20;;;;;;;3.06;43.22;98132.84;5028757;28;20036;-41
2022/04/05 00:59:20;;;;;;;5.40;2.55;;;;;;;3.13;43.46;98152.34;5026765;28;20041;-41
2022/04/05 01:01:46;;;;;;;3.92;2.00;;;;;;;3.12;43.42;98160.91;5029333;28;20032;-41
2022/04/05 01:04:12;;;;;;;5.25;2.00;;;;;;;2.98;43.73;98142.50;5010973;28;20541;-40
2022/04/05 01:06:44;;;;;;;3.90;2.20;;;;;;;2.92;43.45;98150.38;5060870;28;20072;-42
2022/04/05 01:09:10;;;;;;;8.63;1.92;;;;;;;2.95;43.46;98148.56;5027941;28;20041;-40
2022/04/05 01:11:36;;;;;;;4.82;1.98;;;;;;;2.91;43.68;98143.56;5046228;28;20578;-42
2022/04/05 01:14:03;;;;;;;4.93;2.22;;;;;;;2.79;43.62;98131.91;5036774;28;20048;-41
2022/04/05 01:16:29;;;;;;;5.13;2.30;;;;;;;2.81;43.52;98129.31;5046747;28;20043;-42
2022/04/05 01:18:54;;;;;;;3.10;1.90;;;;;;;2.97;43.48;98136.53;5031217;28;20103;-43
2022/04/05 01:21:20;;;;;;;3.95;2.25;;;;;;;2.95;43.32;98120.31;5048861;28;20041;-42
2022/04/05 01:24:06;;;;;;;3.13;1.75;;;;;;;3.15;43.41;98131.72;5028616;28;20049;-41
2022/04/05 01:26:49;;;;;;;4.63;1.92;;;;;;;3.16;43.11;98125.72;5033336;28;20048;-42
2022/04/05 01:29:16;;;;;;;3.40;2.38;;;;;;;3.07;43.04;98096.03;5029758;28;20033;-42
2022/04/05 01:31:50;;;;;;;2.75;1.90;;;;;;;3.33;42.88;98134.59;5030806;28;20091;-41
2022/04/05 01:34:18;;;;;;;3.70;1.70;;;;;;;3.40;43.03;98133.50;5029342;28;20091;-42
2022/04/05 01:36:46;;;;;;;4.00;2.10;;;;;;;3.34;42.87;98117.47;5044408;28;20084;-40
2022/04/05 01:39:12;;;;;;;4.35;1.77;;;;;;;3.34;43.24;98133.72;5038490;28;20464;-40
2022/04/05 01:41:39;;;;;;;2.45;1.45;;;;;;;3.15;43.38;98116.31;5039844;28;20038;-41
2022/04/05 01:44:06;;;;;;;3.50;2.00;;;;;;;3.11;43.67;98123.28;5044767;28;20039;-40
2022/04/05 01:46:32;;;;;;;4.65;1.90;;;;;;;3.12;43.46;98127.53;5036646;28;20064;-41
2022/04/05 01:48:58;;;;;;;3.60;1.73;;;;;;;3.06;43.61;98120.00;5040245;28;20052;-40
2022/04/05 01:51:24;;;;;;;3.33;1.95;;;;;;;3.01;43.62;98105.63;5044846;28;20037;-41
2022/04/05 01:53:49;;;;;;;4.60;1.90;;;;;;;2.92;43.73;98104.19;5043105;28;20119;-41
2022/04/05 01:56:15;;;;;;;4.10;1.90;;;;;;;3.03;43.73;98111.56;5031489;28;20056;-40
2022/04/05 01:58:41;;;;;;;4.97;1.90;;;;;;;3.08;43.80;98107.13;5010451;28;20428;-42
2022/04/05 02:01:07;;;;;;;2.22;1.70;;;;;;;2.97;43.84;98086.91;5039865;28;20037;-41
2022/04/05 02:03:33;;;;;;;4.90;2.08;;;;;;;3.19;43.45;98110.22;5029956;28;20855;-41
2022/04/05 02:06:00;;;;;;;2.88;1.98;;;;;;;3.16;43.52;98100.88;5047249;28;20041;-41
2022/04/05 02:08:27;;;;;;;3.72;1.70;;;;;;;3.11;43.67;98101.91;5048910;28;20041;-41
2022/04/05 02:10:54;;;;;;;2.83;1.70;;;;;;;3.14;43.49;98097.50;5035078;28;20041;-41
2022/04/05 02:13:22;;;;;;;4.93;1.88;;;;;;;3.05;43.66;98095.22;5030789;28;20513;-41
2022/04/05 02:15:53;;;;;;;5.97;1.80;;;;;;;2.97;43.98;98092.06;5030048;28;20203;-41
2022/04/05 02:18:18;;;;;;;10.05;1.85;;;;;;;2.87;44.22;98104.31;5043399;28;20037;-40
2022/04/05 02:20:49;;;;;;;2.38;1.55;;;;;;;2.85;44.21;98087.28;5035243;28;20702;-41
2022/04/05 02:23:17;;;;;;;4.00;1.80;;;;;;;2.77;44.35;98087.50;5046490;28;20043;-41
2022/04/05 02:26:10;;;;;;;2.45;1.63;;;;;;;2.76;44.25;98083.25;5028332;28;20880;-42
2022/04/05 02:28:42;;;;;;;4.32;1.70;;;;;;;2.82;44.32;98083.09;5012648;28;20535;-42
2022/04/05 02:31:12;;;;;;;5.50;1.92;;;;;;;2.76;44.57;98083.25;5029625;28;20194;-41
2022/04/05 02:33:38;;;;;;;2.60;1.90;;;;;;;2.69;44.89;98083.47;5029900;28;20052;-41
2022/04/05 02:36:11;;;;;;;3.30;1.38;;;;;;;2.65;44.90;98087.84;5011940;28;20576;-42
2022/04/05 02:38:37;;;;;;;4.03;2.08;;;;;;;2.61;44.73;98083.69;5028861;28;20048;-40
2022/04/05 02:41:06;;;;;;;4.50;1.83;;;;;;;2.51;45.22;98080.53;5041037;28;20037;-41
2022/04/05 02:43:34;;;;;;;3.80;1.83;;;;;;;2.46;45.12;98073.88;5031845;28;20091;-42
2022/04/05 02:46:00;;;;;;;2.50;1.80;;;;;;;2.51;45.19;98072.00;5038021;28;20041;-41
2022/04/05 02:48:30;;;;;;;4.03;2.15;;;;;;;2.46;44.95;98077.25;5037091;28;20052;-40
2022/04/05 02:50:57;;;;;;;3.22;1.88;;;;;;;2.37;45.10;98051.03;5015042;28;20042;-42
2022/04/05 02:53:23;;;;;;;3.55;1.80;;;;;;;2.51;45.04;98077.16;5044807;28;20107;-42
2022/04/05 02:55:49;;;;;;;3.85;1.50;;;;;;;2.43;45.20;98077.34;4976658;28;20466;-40
2022/04/05 02:58:15;;;;;;;4.40;2.10;;;;;;;2.37;45.78;98074.09;5043455;28;20041;-42
2022/04/05 03:00:43;;;;;;;7.28;2.10;;;;;;;2.20;45.99;98058.34;5016262;28;20120;-41
2022/04/05 03:03:13;;;;;;;2.67;1.55;;;;;;;2.30;45.96;98076.00;5029601;28;20506;-40
2022/04/05 03:05:45;;;;;;;4.10;1.85;;;;;;;2.28;46.23;98070.06;5031240;28;20525;-41
2022/04/05 03:08:11;;;;;;;2.55;1.63;;;;;;;2.13;46.04;98060.22;5032761;28;20051;-41
2022/04/05 03:10:39;;;;;;;3.03;1.77;;;;;;;2.25;46.18;98082.13;5027005;28;20148;-42
2022/04/05 03:13:07;;;;;;;3.33;2.05;;;;;;;2.17;46.38;98081.47;5028120;28;20037;-41
2022/04/05 03:15:33;;;;;;;2.53;1.70;;;;;;;2.11;46.69;98077.34;5027616;28;20072;-41
2022/04/05 03:18:01;;;;;;;3.15;1.88;;;;;;;1.98;46.41;98053.78;5028581;28;20045;-42
2022/04/05 03:20:31;;;;;;;3.75;1.85;;;;;;;2.16;46.64;98072.94;5015488;28;20045;-41
2022/04/05 03:22:59;;;;;;;3.60;2.00;;;;;;;2.13;46.53;98071.31;5051685;28;20528;-41
2022/04/05 03:25:24;;;;;;;3.97;1.67;;;;;;;2.10;46.83;98078.22;5034073;28;20748;-42
2022/04/05 03:27:52;;;;;;;2.58;1.63;;;;;;;2.17;46.48;98073.78;5026546;28;20044;-41
2022/04/05 03:30:22;;;;;;;3.38;1.73;;;;;;;2.17;46.66;98074.63;5032674;28;20049;-41
2022/04/05 03:32:49;;;;;;;5.18;1.73;;;;;;;2.24;46.45;98077.88;5020311;28;20045;-42
2022/04/05 03:35:16;;;;;;;3.45;1.75;;;;;;;2.25;46.52;98075.25;4999625;28;20037;-41
2022/04/05 03:37:42;;;;;;;3.42;2.30;;;;;;;2.35;46.37;98069.03;5037443;28;20479;-41
2022/04/05 03:40:11;;;;;;;3.92;1.70;;;;;;;2.43;46.09;98064.53;5031966;28;20056;-41
2022/04/05 03:42:36;;;;;;;3.95;2.17;;;;;;;2.35;46.55;98070.75;5030966;28;20128;-41
2022/04/05 03:45:06;;;;;;;4.60;1.70;;;;;;;2.35;47.14;98063.91;5026106;28;20041;-41
2022/04/05 03:47:33;;;;;;;4.55;2.35;;;;;;;2.33;46.52;98065.66;5060754;28;20048;-41
2022/04/05 03:49:59;;;;;;;4.60;2.05;;;;;;;2.28;46.62;98066.66;5040402;28;20040;-41
2022/04/05 03:52:26;;;;;;;1.90;1.25;;;;;;;2.31;46.54;98069.13;5042025;28;20224;-42
2022/04/05 03:54:51;;;;;;;5.20;2.10;;;;;;;2.31;46.58;98061.44;5033567;28;20037;-42
2022/04/05 03:57:21;;;;;;;2.85;1.73;;;;;;;2.40;46.34;98062.06;5027948;28;20052;-42
2022/04/05 03:59:48;;;;;;;3.83;2.28;;;;;;;2.51;46.10;98064.31;5025659;28;20041;-42
2022/04/05 04:02:15;;;;;;;6.25;2.22;;;;;;;2.56;46.09;98060.72;5027297;28;20585;-41
2022/04/05 04:04:41;;;;;;;3.28;2.00;;;;;;;2.64;46.13;98062.22;5037704;28;20091;-41
2022/04/05 04:07:07;;;;;;;4.03;2.05;;;;;;;2.67;46.07;98060.41;5032389;28;20475;-42
2022/04/05 04:09:33;;;;;;;7.90;2.13;;;;;;;2.91;45.92;98064.84;5026618;28;20041;-41
2022/04/05 04:12:00;;;;;;;2.75;1.60;;;;;;;3.16;45.13;98058.97;5028040;28;20076;-41
2022/04/05 04:14:27;;;;;;;5.03;2.30;;;;;;;3.16;45.29;98061.53;5059911;28;20543;-42
2022/04/05 04:16:55;;;;;;;4.35;1.75;;;;;;;3.12;45.04;98060.78;5028126;28;20037;-42
2022/04/05 04:19:21;;;;;;;6.25;2.60;;;;;;;3.09;45.40;98062.63;5027280;28;20104;-42
2022/04/05 04:21:47;;;;;;;4.00;1.95;;;;;;;3.11;45.39;98053.13;5027674;28;20464;-41
2022/04/05 04:24:12;;;;;;;7.13;2.50;;;;;;;3.12;45.44;98060.78;5017003;28;20072;-42
2022/04/05 04:26:39;;;;;;;6.45;2.10;;;;;;;3.24;45.53;98060.41;5060026;28;20125;-42
2022/04/05 04:29:05;;;;;;;4.40;2.20;;;;;;;3.34;45.17;98058.41;5025725;28;20041;-42
2022/04/05 04:31:31;;;;;;;5.95;2.50;;;;;;;3.29;45.18;98050.00;5036947;28;20116;-41
2022/04/05 04:33:57;;;;;;;5.00;2.33;;;;;;;3.31;45.32;98066.19;5041900;28;20467;-42
2022/04/05 04:36:23;;;;;;;1.45;1.00;;;;;;;3.44;45.06;98058.94;5027946;28;20042;-42
2022/04/05 04:38:49;;;;;;;3.65;1.92;;;;;;;3.30;45.40;98079.91;5027391;28;20588;-41
2022/04/05 04:41:15;;;;;;;5.05;2.67;;;;;;;3.34;45.51;98051.53;5016264;28;20049;-42
2022/04/05 04:43:41;;;;;;;3.90;2.25;;;;;;;3.62;44.82;98056.59;5040048;28;20042;-41
2022/04/05 04:46:07;;;;;;;4.75;2.53;;;;;;;3.78;44.81;98057.78;5017990;28;20517;-42
2022/04/05 04:48:33;;;;;;;4.03;2.40;;;;;;;3.93;44.16;98050.44;5052273;28;20045;-42
2022/04/05 04:50:58;;;;;;;4.50;2.00;;;;;;;4.19;43.68;98061.50;5028833;28;20532;-42
2022/04/05 04:53:24;;;;;;;4.38;2.13;;;;;;;4.30;43.94;98050.00;5028630;28;20092;-43
2022/04/05 04:55:50;;;;;;;4.00;2.05;;;;;;;4.22;43.48;98045.16;5026769;28;20041;-42
2022/04/05 04:58:15;;;;;;;5.57;2.78;;;;;;;4.33;43.59;98052.50;5027123;28;20033;-43
2022/04/05 05:00:41;;;;;;;4.60;2.45;;;;;;;4.40;43.09;98043.66;5046824;28;20070;-43
2022/04/05 05:03:07;;;;;;;8.88;2.60;;;;;;;4.48;43.46;98046.78;5036115;28;20064;-43
2022/04/05 05:05:33;;;;;;;5.30;2.33;;;;;;;4.52;43.31;98027.78;5030312;28;20492;-43
2022/04/05 05:07:58;;;;;;;6.35;2.47;;;;;;;4.46;43.47;98030.56;5028675;28;20053;-41
2022/04/05 05:10:24;;;;;;;5.00;2.50;;;;;;;4.67;43.32;98046.06;5030331;28;20052;-42
2022/04/05 05:12:50;;;;;;;19.40;3.47;;;;;;;4.54;43.67;98015.69;5029149;28;20051;-42
2022/04/05 05:15:18;;;;;;;4.72;2.67;;;;;;;4.55;44.12;98040.56;5033004;28;20048;-42
2022/04/05 05:17:46;;;;;;;4.67;2.87;;;;;;;4.47;44.15;98025.38;5030403;28;20036;-42
2022/04/05 05:20:13;;;;;;;3.70;2.30;;;;;;;4.56;44.41;98025.03;5025938;28;20276;-43
2022/04/05 05:22:39;;;;;;;4.68;2.60;;;;;;;4.70;44.03;98032.25;5028979;28;20137;-43
2022/04/05 05:25:07;;;;;;;7.63;2.90;;;;;;;4.71;44.63;98028.75;5028840;28;20048;-42
2022/04/05 05:27:33;;;;;;;5.75;2.90;;;;;;;4.84;44.10;98044.59;5028034;28;20083;-43
2022/04/05 05:30:00;;;;;;;5.10;2.83;;;;;;;4.88;44.17;98033.28;5028584;28;20539;-43
2022/04/05 05:32:26;;;;;;;4.40;2.35;;;;;;;4.97;44.22;98030.38;5028358;28;20047;-42
2022/04/05 05:34:52;;;;;;;4.55;2.25;;;;;;;4.94;44.10;98027.91;5036100;28;20090;-43
2022/04/05 05:37:18;;;;;;;4.95;2.90;;;;;;;5.00;44.36;98025.94;5035943;28;20531;-41
2022/04/05 05:39:43;;;;;;;6.30;2.97;;;;;;;5.04;43.97;98029.22;5031230;28;20587;-41
2022/04/05 05:42:09;;;;;;;3.92;2.63;;;;;;;4.73;44.34;97996.09;5035179;28;20706;-42
2022/04/05 05:44:35;;;;;;;6.72;2.85;;;;;;;5.00;43.97;98020.78;5030503;28;20547;-43
2022/04/05 05:47:03;;;;;;;8.70;3.33;;;;;;;5.23;43.98;98009.59;5026496;28;20037;-41
2022/04/05 05:49:28;;;;;;;3.22;1.90;;;;;;;5.30;43.65;98008.44;5029699;28;20088;-42
2022/04/05 05:51:54;;;;;;;6.03;3.00;;;;;;;5.24;43.69;97982.91;4995668;28;20084;-40
2022/04/05 05:54:20;;;;;;;6.10;3.05;;;;;;;5.44;43.59;97993.25;5029687;28;20037;-40
2022/04/05 05:56:46;;;;;;;5.50;2.60;;;;;;;5.71;42.69;97990.44;5028186;28;20475;-42
2022/04/05 05:59:12;;;;;;;8.88;3.30;;;;;;;5.88;42.39;97998.34;5046128;28;20033;-43
2022/04/05 06:01:38;;;;;;;4.47;2.53;;;;;;;5.59;43.13;97990.97;5034839;28;20049;-45
2022/04/05 06:04:03;;;;;;;6.60;3.10;;;;;;;6.06;42.95;98005.31;5028392;28;20057;-43
2022/04/05 06:06:29;;;;;;;6.85;3.10;;;;;;;6.65;41.69;98002.63;5028025;28;20050;-40
2022/04/05 06:08:56;;;;;;;5.22;2.95;;;;;;;6.97;40.94;97990.81;5029520;28;20036;-42
2022/04/05 06:11:25;;;;;;;6.22;2.65;;;;;;;7.29;40.20;97994.47;5033396;28;20045;-41
2022/04/05 06:13:51;;;;;;;4.28;2.75;;;;;;;7.00;39.99;97972.63;5027044;28;20567;-41
2022/04/05 06:16:18;;;;;;;7.38;3.00;;;;;;;6.89;40.33;97982.63;5026372;28;20141;-41
2022/04/05 06:18:47;;;;;;;6.43;3.15;;;;;;;6.46;41.24;97967.41;5028909;28;20041;-39
2022/04/05 06:21:17;;;;;;;5.15;2.78;;;;;;;6.42;41.43;97987.38;5028134;28;20136;-41
2022/04/05 06:23:43;;;;;;;4.60;2.63;;;;;;;6.77;41.21;97972.84;5029550;28;20108;-41
2022/04/05 06:26:09;;;;;;;4.70;2.80;;;;;;;6.92;40.67;97986.78;5028279;28;20535;-41
2022/04/05 06:28:35;;;;;;;7.72;3.22;;;;;;;7.06;40.65;97987.00;5028526;28;20045;-40
2022/04/05 06:31:00;;;;;;;4.15;2.65;;;;;;;7.06;40.57;97994.75;5029481;28;20045;-39
2022/04/05 06:33:26;;;;;;;7.05;3.10;;;;;;;7.02;40.55;97985.44;5029378;28;20038;-40
2022/04/05 06:35:56;;;;;;;7.78;3.35;;;;;;;7.62;39.32;97982.50;5027792;28;20127;-42
2022/04/05 06:38:22;;;;;;;7.70;3.20;;;;;;;8.10;38.36;97962.81;5029470;28;20049;-40
2022/04/05 06:40:48;;;;;;;7.40;3.15;;;;;;;8.43;37.45;97971.41;5028902;28;20076;-39
2022/04/05 06:43:16;;;;;;;4.75;2.30;;;;;;;8.36;37.28;97985.63;5028853;28;20099;-40
2022/04/05 06:45:43;;;;;;;4.13;2.60;;;;;;;7.94;38.08;97946.41;5028956;28;20083;-40
2022/04/05 06:48:09;;;;;;;4.80;3.15;;;;;;;7.81;38.34;97982.41;5028245;28;20115;-40
2022/04/05 06:50:39;;;;;;;5.78;3.22;;;;;;;7.77;38.21;97988.66;5029085;28;20099;-39
2022/04/05 06:53:06;;;;;;;6.45;3.15;;;;;;;7.64;38.60;97977.25;5029346;28;20041;-39
2022/04/05 06:55:32;;;;;;;5.10;2.22;;;;;;;7.27;38.93;97982.53;5028497;28;20048;-41
2022/04/05 06:57:58;;;;;;;6.88;3.15;;;;;;;7.16;39.75;97985.66;5026849;28;20037;-39
2022/04/05 07:00:25;;;;;;;3.72;2.78;;;;;;;7.11;39.24;97974.69;5029036;28;20040;-39
2022/04/05 07:02:55;;;;;;;3.05;1.88;;;;;;;6.88;39.97;97975.75;5044064;28;20073;-40
2022/04/05 07:05:20;;;;;;;;;;;;;;;6.94;39.72;97974.66;5028958;28;20068;-40
2022/04/05 07:07:46;;;;;;;4.25;2.50;;;;;;;6.55;40.01;97933.41;5027592;28;19917;-39
2022/04/05 07:10:17;;;;;;;5.55;2.85;;;;;;;6.85;40.63;97960.44;5027738;28;20126;-40
2022/04/05 07:12:43;;;;;;;5.63;2.85;;;;;;;6.80;40.25;97941.72;5028617;28;20124;-40
2022/04/05 07:15:10;;;;;;;4.70;2.55;;;;;;;6.80;40.76;97952.88;5027504;28;20041;-40
2022/04/05 07:17:37;;;;;;;4.82;2.63;;;;;;;6.94;40.13;97943.66;5028542;28;20048;-39
2022/04/05 07:20:07;;;;;;;7.32;2.95;;;;;;;7.19;40.06;97954.47;5027658;28;20064;-40
2022/04/05 07:22:33;;;;;;;4.97;2.65;;;;;;;7.26;39.85;97942.09;5026502;28;20064;-39
2022/04/05 07:24:58;;;;;;;4.68;3.10;;;;;;;7.71;39.08;97946.72;5028536;28;20120;-44
2022/04/05 07:27:24;;;;;;;3.17;2.38;;;;;;;7.75;38.53;97956.00;5027932;28;20048;-40
2022/04/05 07:29:50;;;;;;;7.30;3.10;;;;;;;8.07;38.38;97943.09;5028348;28;20037;-42
2022/04/05 07:32:16;;;;;;;9.73;3.40;;;;;;;8.93;36.94;97929.00;5026609;28;20473;-39
2022/04/05 07:34:41;;;;;;;6.18;2.78;;;;;;;9.79;34.88;97925.72;5027425;28;20045;-39
2022/04/05 07:37:09;;;;;;;4.80;2.95;;;;;;;10.42;34.24;97927.97;5028629;28;20433;-41
2022/04/05 07:39:36;;;;;;;5.68;3.00;;;;;;;10.82;33.14;97939.34;5027427;28;20041;-41
2022/04/05 07:42:02;;;;;;;6.18;3.47;;;;;;;11.70;31.23;97925.75;5028266;28;20044;-41
2022/04/05 07:44:28;;;;;;;4.68;3.05;;;;;;;12.78;29.64;97928.69;5027222;28;20044;-39
2022/04/05 07:46:53;;;;;;;5.43;3.30;;;;;;;13.65;28.77;97925.81;5007144;28;20045;-40
2022/04/05 07:49:19;;;;;;;4.05;2.78;;;;;;;13.20;28.60;97919.56;5008372;28;20050;-41
2022/04/05 07:51:45;;;;;;;5.30;2.50;;;;;;;12.24;28.73;97914.22;5015181;28;20124;-40
2022/04/05 07:54:10;;;;;;;4.53;2.60;;;;;;;11.95;29.44;97958.81;5026954;28;20064;-40
2022/04/05 07:56:36;;;;;;;5.72;2.80;;;;;;;11.61;30.58;97916.78;5027961;28;20045;-41
2022/04/05 07:59:02;;;;;;;9.35;2.80;;;;;;;12.48;29.33;97914.28;5026128;28;20044;-40
2022/04/05 08:01:29;;;;;;;5.07;3.00;;;;;;;13.05;27.93;97924.09;5042832;28;20041;-40
2022/04/05 08:03:57;;;;;;;3.75;2.90;;;;;;;13.30;27.46;97913.56;5028145;28;20053;-40
2022/04/05 08:06:24;;;;;;;4.97;2.27;;;;;;;13.79;26.46;97928.19;5028511;28;20041;-41
2022/04/05 08:08:50;;;;;;;6.65;2.70;;;;;;;13.44;26.70;97891.69;5027284;28;20048;-42
2022/04/05 08:11:16;;;;;;;4.80;2.97;;;;;;;14.19;26.43;97908.53;5028087;28;20092;-40
2022/04/05 08:13:42;;;;;;;5.10;2.78;;;;;;;14.07;25.74;97900.81;5043385;28;20572;-40
2022/04/05 08:16:08;;;;;;;6.45;3.05;;;;;;;14.56;25.36;97898.69;5043328;28;20045;-41
2022/04/05 08:18:34;;;;;;;5.85;3.20;;;;;;;15.95;24.32;97907.31;5043321;28;20069;-41
2022/04/05 08:20:59;;;;;;;7.32;2.80;;;;;;;16.01;23.52;97898.94;5027628;28;20073;-42
2022/04/05 08:23:25;;;;;;;6.70;2.78;;;;;;;15.12;24.47;97904.63;5027721;28;20037;-40
2022/04/05 08:25:51;;;;;;;3.58;2.80;;;;;;;14.24;25.53;97906.38;5027692;28;20071;-40
2022/04/05 08:28:17;;;;;;;4.03;2.80;;;;;;;14.65;25.22;97910.22;5027686;28;20142;-39
2022/04/05 08:30:43;;;;;;;6.90;3.00;;;;;;;14.93;24.39;97887.91;5027864;28;20048;-40
2022/04/05 08:33:09;;;;;;;3.70;2.65;;;;;;;14.82;24.74;97899.22;5027763;28;20084;-40
2022/04/05 08:35:34;;;;;;;5.32;2.35;;;;;;;14.94;24.38;97902.66;5027986;28;20072;-40
2022/04/05 08:38:00;;;;;;;4.85;2.70;;;;;;;14.46;24.93;97870.75;5026415;28;20106;-39
2022/04/05 08:40:26;;;;;;;4.20;2.63;;;;;;;13.74;25.54;97909.44;5012716;28;20041;-40
2022/04/05 08:42:56;;;;;;;3.53;2.25;;;;;;;13.84;25.77;97868.59;5013438;28;20057;-41
2022/04/05 08:45:23;;;;;;;3.28;2.53;;;;;;;13.94;25.68;97893.06;5030133;28;20041;-40
2022/04/05 08:47:54;;;;;;;2.90;2.33;;;;;;;12.89;26.87;97851.34;5030277;28;20103;-39
2022/04/05 08:50:22;;;;;;;4.85;2.80;;;;;;;12.85;27.38;97882.97;5036528;28;20132;-39
2022/04/05 08:52:48;;;;;;;5.60;2.90;;;;;;;13.24;26.92;97874.06;5031612;28;20088;-40
2022/04/05 08:55:15;;;;;;;3.10;1.88;;;;;;;12.47;27.41;97872.66;5031511;28;20124;-40
2022/04/05 08:57:41;;;;;;;3.08;2.40;;;;;;;12.21;27.55;97877.94;5029082;28;20513;-41
2022/04/05 09:00:09;;;;;;;2.60;2.10;;;;;;;12.04;27.02;97893.91;5030254;28;20068;-39
2022/04/05 09:02:36;;;;;;;3.65;1.92;;;;;;;11.30;28.29;97884.16;5030224;28;20045;-41
2022/04/05 09:05:02;;;;;;;3.03;2.50;;;;;;;10.69;29.13;97881.25;5031131;28;20064;-41
2022/04/05 09:07:31;;;;;;;3.50;2.35;;;;;;;11.70;28.52;97884.09;5030704;28;20530;-41
2022/04/05 09:10:10;;;;;;;2.85;1.88;;;;;;;11.80;27.67;97867.78;5030578;28;20037;-39
2022/04/05 09:12:49;;;;;;;3.45;2.15;;;;;;;10.79;28.91;97901.34;5040818;28;20029;-39
2022/04/05 09:15:21;;;;;;;3.47;2.05;;;;;;;9.96;29.74;97904.78;5062973;28;20128;-40
2022/04/05 09:17:47;;;;;;;3.40;1.60;;;;;;;9.52;30.30;97863.34;5030568;28;20069;-39
2022/04/05 09:20:15;;;;;;;4.90;2.30;;;;;;;9.86;30.59;97863.91;5029489;28;20049;-41
2022/04/05 09:22:41;;;;;;;4.32;2.92;;;;;;;10.43;30.21;97849.13;5030575;28;20080;-40
2022/04/05 09:25:10;;;;;;;3.67;2.63;;;;;;;11.08;29.67;97860.50;5030935;28;20141;-41
2022/04/05 09:27:51;;;;;;;4.90;2.78;;;;;;;10.75;29.70;97854.88;5022848;28;20060;-41
2022/04/05 09:30:23;;;;;;;4.18;1.92;;;;;;;10.60;29.17;97862.72;5011149;28;20041;-41
2022/04/05 09:32:51;;;;;;;5.55;2.50;;;;;;;10.26;29.63;97852.75;5009876;28;20038;-41
2022/04/05 09:35:20;;;;;;;4.87;2.73;;;;;;;10.63;30.08;97853.88;5010833;28;20045;-39
2022/04/05 09:37:47;;;;;;;4.18;2.63;;;;;;;10.51;29.88;97844.28;5017897;28;20287;-41
2022/04/05 09:40:17;;;;;;;3.47;2.33;;;;;;;10.16;30.03;97829.13;5029427;28;20603;-39
2022/04/05 09:42:59;;;;;;;4.43;2.50;;;;;;;10.10;29.96;97829.47;5029612;28;20701;-41
2022/04/05 09:45:49;;;;;;;6.18;2.20;;;;;;;9.82;30.45;97831.28;5023784;28;20050;-40
2022/04/05 09:48:22;;;;;;;5.55;2.33;;;;;;;10.14;30.12;97833.56;5010751;28;20041;-40
2022/04/05 09:51:06;;;;;;;4.88;2.20;;;;;;;10.82;28.56;97831.00;5012755;28;20085;-40
2022/04/05 09:53:54;;;;;;;2.80;2.28;;;;;;;11.43;28.27;97819.13;5030319;28;20493;-40
2022/04/05 09:56:22;;;;;;;3.25;1.90;;;;;;;11.11;27.76;97830.84;5030317;28;20045;-40
2022/04/05 09:58:56;;;;;;;3.17;2.35;;;;;;;10.60;28.30;97822.91;5015209;28;20069;-40
2022/04/05 10:01:23;;;;;;;3.95;2.58;;;;;;;10.97;27.83;97821.34;5010582;28;20042;-41
2022/04/05 10:04:03;;;;;;;3.63;2.20;;;;;;;11.81;26.75;97822.59;5010069;28;20037;-40
2022/04/05 10:06:30;;;;;;;4.50;3.03;;;;;;;12.11;26.14;97826.59;5010051;28;20057;-39
2022/04/05 10:08:58;;;;;;;3.90;1.90;;;;;;;12.41;25.86;97831.41;5023636;28;20064;-41
2022/04/05 10:11:25;;;;;;;3.75;2.45;;;;;;;12.42;25.77;97826.09;5030252;28;20156;-41
2022/04/05 10:13:51;;;;;;;4.00;2.40;;;;;;;11.95;26.67;97818.19;5018653;28;20092;-41
2022/04/05 10:16:18;;;;;;;3.28;2.40;;;;;;;11.60;27.04;97791.97;5010205;28;20514;-42
2022/04/05 10:18:46;;;;;;;4.35;2.40;;;;;;;12.09;26.90;97811.06;5021897;28;20633;-41
2022/04/05 10:21:13;;;;;;;2.30;1.80;;;;;;;12.30;25.82;97829.56;5029740;28;20033;-39
2022/04/05 10:23:42;;;;;;;5.40;2.15;;;;;;;12.11;26.05;97809.19;5027493;28;20128;-41
2022/04/05 10:26:09;;;;;;;;;;;;;;;13.10;25.14;97805.41;5029963;28;20053;-39
2022/04/05 10:28:35;;;;;;;4.43;2.10;;;;;;;12.95;25.04;97801.34;5033894;28;19917;-40
2022/04/05 10:31:11;;;;;;;3.03;2.03;;;;;;;12.82;25.00;97787.56;5024511;28;20041;-40
2022/04/05 10:33:55;;;;;;;4.47;2.40;;;;;;;12.95;25.20;97787.47;5026194;28;20045;-40
2022/04/05 10:36:23;;;;;;;2.72;2.10;;;;;;;12.75;24.73;97788.94;5029224;28;20068;-40
2022/04/05 10:39:11;;;;;;;3.50;1.95;;;;;;;13.35;24.37;97782.72;5027546;28;20113;-40
2022/04/05 10:41:37;;;;;;;4.43;2.03;;;;;;;14.23;23.92;97784.53;5029307;28;20111;-42
2022/04/05 10:44:23;;;;;;;3.63;2.25;;;;;;;14.30;23.51;97792.69;5016987;28;20038;-41
2022/04/05 10:46:58;;;;;;;3.92;2.00;;;;;;;13.33;24.13;97779.41;5024870;28;20041;-39
2022/04/05 10:49:42;;;;;;;3.78;2.10;;;;;;;13.20;24.51;97778.66;5027420;28;20096;-41
2022/04/05 10:52:10;;;;;;;3.80;2.15;;;;;;;13.63;24.23;97776.25;5029025;28;20164;-40
2022/04/05 10:54:49;;;;;;;5.22;2.25;;;;;;;14.12;23.84;97791.53;5044831;28;20041;-39
2022/04/05 10:57:31;;;;;;;2.03;1.70;;;;;;;14.32;23.59;97794.25;5009292;28;20037;-39
2022/04/05 11:00:11;;;;;;;4.40;2.50;;;;;;;13.69;24.18;97807.94;5024226;28;20045;-39
2022/04/05 11:03:06;;;;;;;;;;;;;;;13.37;24.04;97766.03;5028687;28;20037;-43
2022/04/05 11:05:40;;;;;;;3.20;2.30;;;;;;;14.40;23.12;97765.72;5008636;28;19928;-40
2022/04/05 11:08:10;;;;;;;4.00;2.20;;;;;;;14.18;23.58;97781.44;5011288;28;20498;-40
2022/04/05 11:10:36;;;;;;;3.28;2.20;;;;;;;13.69;24.16;97770.56;5028996;28;20045;-39
2022/04/05 11:13:12;;;;;;;4.90;2.40;;;;;;;13.37;24.56;97762.56;5025552;28;20044;-39
2022/04/05 11:15:42;;;;;;;3.20;1.85;;;;;;;12.86;24.99;97760.31;5016794;28;20091;-39
2022/04/05 11:18:19;;;;;;;3.05;1.98;;;;;;;12.37;25.80;97762.22;5028633;28;20071;-41
2022/04/05 11:20:46;;;;;;;5.80;2.17;;;;;;;11.79;26.22;97753.34;5028434;28;20041;-40
2022/04/05 11:23:13;;;;;;;4.57;2.17;;;;;;;11.92;26.21;97776.75;5027265;28;20484;-38
2022/04/05 11:25:39;;;;;;;4.22;2.47;;;;;;;11.82;26.70;97755.75;5027687;28;20135;-41
2022/04/05 11:28:23;;;;;;;3.80;2.42;;;;;;;11.85;26.59;97760.72;5026846;28;20586;-40
2022/04/05 11:30:56;;;;;;;4.03;1.95;;;;;;;11.57;26.76;97763.53;5007359;28;20046;-40
2022/04/05 11:33:34;;;;;;;3.08;1.83;;;;;;;10.77;28.17;97756.84;5023593;28;20049;-40
2022/04/05 11:36:04;;;;;;;4.65;2.65;;;;;;;10.29;28.51;97742.69;5033958;28;20087;-42
2022/04/05 11:38:33;;;;;;;4.10;1.95;;;;;;;10.44;28.35;97737.31;5027931;28;20148;-40
2022/04/05 11:41:08;;;;;;;3.55;2.03;;;;;;;10.17;28.93;97733.91;5026863;28;20041;-39
2022/04/05 11:43:45;;;;;;;3.30;2.30;;;;;;;9.83;29.23;97747.31;5027386;28;20064;-39